sensor_id;sensor_type;location;lat;lon;timestamp;temperature;humidity
48019;DHT22;33786;48.690;9.562;2023-02-01T00:00:04;4.00;99.90
48019;DHT22;33786;48.690;9.562;2023-02-01T00:02:31;4.00;99.90
48019;DHT22;33786;48.690;9.562;2023-02-01T00:04:58;4.00;99.90
48019;DHT22;33786;48.690;9.562;2023-02-01T00:07:25;4.00;99.90
48019;DHT22;33786;48.690;9.562;2023-02-01T00:09:52;4.00;99.90
48019;DHT22;33786;48.690;9.562;2023-02-01T00:12:18;3.90;99.90
48019;DHT22;33786;48.690;9.562;2023-02-01T00:14:45;3.90;99.90
48019;DHT22;33786;48.690;9.562;2023-02-01T00:17:12;3.90;99.90
48019;DHT22;33786;48.690;9.562;2023-02-01T00:19:39;3.90;99.90
48019;DHT22;33786;48.690;9.562;2023-02-01T00:22:05;3.90;99.90
48019;DHT22;33786;48.690;9.562;2023-02-01T00:24:32;3.90;99.90
48019;DHT22;33786;48.690;9.562;2023-02-01T00:26:59;3.80;99.90
48019;DHT22;33786;48.690;9.562;2023-02-01T00:29:25;3.90;99.90
48019;DHT22;33786;48.690;9.562;2023-02-01T00:31:52;3.90;99.90
48019;DHT22;33786;48.690;9.562;2023-02-01T00:34:19;3.80;99.90
48019;DHT22;33786;48.690;9.562;2023-02-01T00:36:46;3.80;99.90
48019;DHT22;33786;48.690;9.562;2023-02-01T00:39:13;3.80;99.90
48019;DHT22;33786;48.690;9.562;2023-02-01T00:41:40;3.80;99.90
48019;DHT22;33786;48.690;9.562;2023-02-01T00:44:07;3.80;99.90
48019;DHT22;33786;48.690;9.562;2023-02-01T00:46:34;3.80;99.90
48019;DHT22;33786;48.690;9.562;2023-02-01T00:49:00;3.80;99.90
48019;DHT22;33786;48.690;9.562;2023-02-01T00:51:28;3.80;99.90
48019;DHT22;33786;48.690;9.562;2023-02-01T00:53:54;3.70;99.90
48019;DHT22;33786;48.690;9.562;2023-02-01T00:56:22;3.80;99.90
48019;DHT22;33786;48.690;9.562;2023-02-01T00:58:48;3.80;99.90
48019;DHT22;33786;48.690;9.562;2023-02-01T01:01:19;3.80;99.90
48019;DHT22;33786;48.690;9.562;2023-02-01T01:03:47;3.80;99.90
48019;DHT22;33786;48.690;9.562;2023-02-01T01:06:15;3.90;99.90
48019;DHT22;33786;48.690;9.562;2023-02-01T01:08:42;3.90;99.90
48019;DHT22;33786;48.690;9.562;2023-02-01T01:11:13;3.80;99.90
48019;DHT22;33786;48.690;9.562;2023-02-01T01:13:41;3.80;99.90
48019;DHT22;33786;48.690;9.562;2023-02-01T01:16:09;3.80;99.90
48019;DHT22;33786;48.690;9.562;2023-02-01T01:18:36;3.80;99.90
48019;DHT22;33786;48.690;9.562;2023-02-01T01:21:04;3.90;99.90
48019;DHT22;33786;48.690;9.562;2023-02-01T01:23:31;4.00;99.90
48019;DHT22;33786;48.690;9.562;2023-02-01T01:25:57;3.90;99.90
48019;DHT22;33786;48.690;9.562;2023-02-01T01:28:24;3.90;99.90
48019;DHT22;33786;48.690;9.562;2023-02-01T01:30:51;3.90;99.90
48019;DHT22;33786;48.690;9.562;2023-02-01T01:33:18;3.90;99.90
48019;DHT22;33786;48.690;9.562;2023-02-01T01:35:44;3.90;99.90
48019;DHT22;33786;48.690;9.562;2023-02-01T01:38:11;3.90;99.90
48019;DHT22;33786;48.690;9.562;2023-02-01T01:40:38;3.90;99.90
48019;DHT22;33786;48.690;9.562;2023-02-01T01:43:15;4.00;99.90
48019;DHT22;33786;48.690;9.562;2023-02-01T01:45:42;3.90;99.90
48019;DHT22;33786;48.690;9.562;2023-02-01T01:48:17;3.90;99.90
48019;DHT22;33786;48.690;9.562;2023-02-01T01:50:49;3.90;99.90
48019;DHT22;33786;48.690;9.562;2023-02-01T01:53:18;3.80;99.90
48019;DHT22;33786;48.690;9.562;2023-02-01T01:55:46;3.80;99.90
48019;DHT22;33786;48.690;9.562;2023-02-01T01:58:15;3.90;99.90
48019;DHT22;33786;48.690;9.562;2023-02-01T02:00:45;3.80;99.90
48019;DHT22;33786;48.690;9.562;2023-02-01T02:05:42;3.90;99.90
48019;DHT22;33786;48.690;9.562;2023-02-01T02:08:09;3.90;99.90
48019;DHT22;33786;48.690;9.562;2023-02-01T02:10:36;3.90;99.90
48019;DHT22;33786;48.690;9.562;2023-02-01T02:13:21;3.90;99.90
48019;DHT22;33786;48.690;9.562;2023-02-01T02:15:52;3.90;99.90
48019;DHT22;33786;48.690;9.562;2023-02-01T02:18:27;3.90;99.90
48019;DHT22;33786;48.690;9.562;2023-02-01T02:21:02;3.90;99.90
48019;DHT22;33786;48.690;9.562;2023-02-01T02:29:03;4.00;99.90
48019;DHT22;33786;48.690;9.562;2023-02-01T02:31:50;4.00;99.90
48019;DHT22;33786;48.690;9.562;2023-02-01T02:34:40;4.10;99.90
48019;DHT22;33786;48.690;9.562;2023-02-01T02:42:52;4.00;99.90
48019;DHT22;33786;48.690;9.562;2023-02-01T02:45:29;4.00;99.90
48019;DHT22;33786;48.690;9.562;2023-02-01T02:48:22;4.00;99.90
48019;DHT22;33786;48.690;9.562;2023-02-01T02:53:47;4.10;99.90
48019;DHT22;33786;48.690;9.562;2023-02-01T02:56:33;4.10;99.90
48019;DHT22;33786;48.690;9.562;2023-02-01T02:59:21;4.10;99.90
48019;DHT22;33786;48.690;9.562;2023-02-01T03:02:07;4.20;99.90
48019;DHT22;33786;48.690;9.562;2023-02-01T03:04:53;4.20;99.90
48019;DHT22;33786;48.690;9.562;2023-02-01T03:10:09;4.20;99.90
48019;DHT22;33786;48.690;9.562;2023-02-01T03:12:37;4.20;99.90
48019;DHT22;33786;48.690;9.562;2023-02-01T03:15:36;4.20;99.90
48019;DHT22;33786;48.690;9.562;2023-02-01T03:18:05;4.30;99.90
48019;DHT22;33786;48.690;9.562;2023-02-01T03:20:33;4.30;99.90
48019;DHT22;33786;48.690;9.562;2023-02-01T03:23:00;4.30;99.90
48019;DHT22;33786;48.690;9.562;2023-02-01T03:25:30;4.40;99.90
48019;DHT22;33786;48.690;9.562;2023-02-01T03:27:59;4.30;99.90
48019;DHT22;33786;48.690;9.562;2023-02-01T03:30:37;4.20;99.90
48019;DHT22;33786;48.690;9.562;2023-02-01T03:33:05;4.10;99.90
48019;DHT22;33786;48.690;9.562;2023-02-01T03:38:37;4.10;99.90
48019;DHT22;33786;48.690;9.562;2023-02-01T03:41:40;4.10;99.90
48019;DHT22;33786;48.690;9.562;2023-02-01T03:46:28;4.10;99.90
48019;DHT22;33786;48.690;9.562;2023-02-01T03:49:00;4.00;99.90
48019;DHT22;33786;48.690;9.562;2023-02-01T03:51:27;4.00;99.90
48019;DHT22;33786;48.690;9.562;2023-02-01T03:53:54;4.00;99.90
48019;DHT22;33786;48.690;9.562;2023-02-01T03:56:22;4.10;99.90
48019;DHT22;33786;48.690;9.562;2023-02-01T03:58:50;3.90;99.90
48019;DHT22;33786;48.690;9.562;2023-02-01T04:01:27;3.90;99.90
48019;DHT22;33786;48.690;9.562;2023-02-01T04:03:54;3.90;99.90
48019;DHT22;33786;48.690;9.562;2023-02-01T04:06:21;4.00;99.90
48019;DHT22;33786;48.690;9.562;2023-02-01T04:08:48;4.00;99.90
48019;DHT22;33786;48.690;9.562;2023-02-01T04:11:14;4.00;99.90
48019;DHT22;33786;48.690;9.562;2023-02-01T04:13:41;4.00;99.90
48019;DHT22;33786;48.690;9.562;2023-02-01T04:16:08;4.10;99.90
48019;DHT22;33786;48.690;9.562;2023-02-01T04:18:35;4.10;99.90
48019;DHT22;33786;48.690;9.562;2023-02-01T04:21:02;4.10;99.90
48019;DHT22;33786;48.690;9.562;2023-02-01T04:23:28;4.10;99.90
48019;DHT22;33786;48.690;9.562;2023-02-01T04:25:59;4.20;99.90
48019;DHT22;33786;48.690;9.562;2023-02-01T04:28:25;4.20;99.90
48019;DHT22;33786;48.690;9.562;2023-02-01T04:30:52;4.30;99.90
48019;DHT22;33786;48.690;9.562;2023-02-01T04:33:19;4.30;99.90
48019;DHT22;33786;48.690;9.562;2023-02-01T04:35:45;4.20;99.90
48019;DHT22;33786;48.690;9.562;2023-02-01T04:38:12;4.20;99.90
48019;DHT22;33786;48.690;9.562;2023-02-01T04:40:39;4.20;99.90
48019;DHT22;33786;48.690;9.562;2023-02-01T04:43:05;4.20;99.90
48019;DHT22;33786;48.690;9.562;2023-02-01T04:45:32;4.30;99.90
48019;DHT22;33786;48.690;9.562;2023-02-01T04:47:59;4.20;99.90
48019;DHT22;33786;48.690;9.562;2023-02-01T04:50:25;4.20;99.90
48019;DHT22;33786;48.690;9.562;2023-02-01T04:52:52;4.20;99.90
48019;DHT22;33786;48.690;9.562;2023-02-01T04:55:19;4.20;99.90
48019;DHT22;33786;48.690;9.562;2023-02-01T04:57:45;4.20;99.90
48019;DHT22;33786;48.690;9.562;2023-02-01T05:00:12;4.20;99.90
48019;DHT22;33786;48.690;9.562;2023-02-01T05:02:39;4.10;99.90
48019;DHT22;33786;48.690;9.562;2023-02-01T05:05:06;4.10;99.90
48019;DHT22;33786;48.690;9.562;2023-02-01T05:07:33;4.10;99.90
48019;DHT22;33786;48.690;9.562;2023-02-01T05:09:59;4.10;99.90
48019;DHT22;33786;48.690;9.562;2023-02-01T05:12:26;4.10;99.90
48019;DHT22;33786;48.690;9.562;2023-02-01T05:15:14;4.10;99.90
48019;DHT22;33786;48.690;9.562;2023-02-01T05:17:41;4.10;99.90
48019;DHT22;33786;48.690;9.562;2023-02-01T05:20:08;4.20;99.90
48019;DHT22;33786;48.690;9.562;2023-02-01T05:22:35;4.20;99.90
48019;DHT22;33786;48.690;9.562;2023-02-01T05:25:02;4.20;99.90
48019;DHT22;33786;48.690;9.562;2023-02-01T05:27:29;4.20;99.90
48019;DHT22;33786;48.690;9.562;2023-02-01T05:29:56;4.30;99.90
48019;DHT22;33786;48.690;9.562;2023-02-01T05:32:22;4.40;99.90
48019;DHT22;33786;48.690;9.562;2023-02-01T05:34:49;4.20;99.90
48019;DHT22;33786;48.690;9.562;2023-02-01T05:37:16;4.20;99.90
48019;DHT22;33786;48.690;9.562;2023-02-01T05:39:42;4.30;99.90
48019;DHT22;33786;48.690;9.562;2023-02-01T05:42:09;4.30;99.90
48019;DHT22;33786;48.690;9.562;2023-02-01T05:44:36;4.30;99.90
48019;DHT22;33786;48.690;9.562;2023-02-01T05:47:02;4.30;99.90
48019;DHT22;33786;48.690;9.562;2023-02-01T05:49:29;4.30;99.90
48019;DHT22;33786;48.690;9.562;2023-02-01T05:51:56;4.30;99.90
48019;DHT22;33786;48.690;9.562;2023-02-01T05:54:25;4.30;99.90
48019;DHT22;33786;48.690;9.562;2023-02-01T05:56:52;4.30;99.90
48019;DHT22;33786;48.690;9.562;2023-02-01T05:59:19;4.30;99.90
48019;DHT22;33786;48.690;9.562;2023-02-01T06:01:45;4.30;99.90
48019;DHT22;33786;48.690;9.562;2023-02-01T06:04:12;4.40;99.90
48019;DHT22;33786;48.690;9.562;2023-02-01T06:06:39;4.30;99.90
48019;DHT22;33786;48.690;9.562;2023-02-01T06:09:05;4.40;99.90
48019;DHT22;33786;48.690;9.562;2023-02-01T06:11:32;4.40;99.90
48019;DHT22;33786;48.690;9.562;2023-02-01T06:13:59;4.40;99.90
48019;DHT22;33786;48.690;9.562;2023-02-01T06:16:26;4.40;99.90
48019;DHT22;33786;48.690;9.562;2023-02-01T06:18:53;4.40;99.90
48019;DHT22;33786;48.690;9.562;2023-02-01T06:21:20;4.30;99.90
48019;DHT22;33786;48.690;9.562;2023-02-01T06:23:51;4.30;99.90
48019;DHT22;33786;48.690;9.562;2023-02-01T06:26:18;4.40;99.90
48019;DHT22;33786;48.690;9.562;2023-02-01T06:28:44;4.30;99.90
48019;DHT22;33786;48.690;9.562;2023-02-01T06:31:11;4.30;99.90
48019;DHT22;33786;48.690;9.562;2023-02-01T06:33:38;4.20;99.90
48019;DHT22;33786;48.690;9.562;2023-02-01T06:36:06;4.10;99.90
48019;DHT22;33786;48.690;9.562;2023-02-01T06:38:33;4.10;99.90
48019;DHT22;33786;48.690;9.562;2023-02-01T06:41:03;4.10;99.90
48019;DHT22;33786;48.690;9.562;2023-02-01T06:43:30;4.10;99.90
48019;DHT22;33786;48.690;9.562;2023-02-01T06:46:04;4.10;99.90
48019;DHT22;33786;48.690;9.562;2023-02-01T06:48:32;4.10;99.90
48019;DHT22;33786;48.690;9.562;2023-02-01T06:50:58;4.10;99.90
48019;DHT22;33786;48.690;9.562;2023-02-01T06:53:25;4.10;99.90
48019;DHT22;33786;48.690;9.562;2023-02-01T06:55:55;4.10;99.90
48019;DHT22;33786;48.690;9.562;2023-02-01T06:58:22;4.10;99.90
48019;DHT22;33786;48.690;9.562;2023-02-01T07:00:49;4.10;99.90
48019;DHT22;33786;48.690;9.562;2023-02-01T07:03:16;4.10;99.90
48019;DHT22;33786;48.690;9.562;2023-02-01T07:05:43;4.10;99.90
48019;DHT22;33786;48.690;9.562;2023-02-01T07:08:10;4.10;99.90
48019;DHT22;33786;48.690;9.562;2023-02-01T07:10:37;4.20;99.90
48019;DHT22;33786;48.690;9.562;2023-02-01T07:13:03;4.30;99.90
48019;DHT22;33786;48.690;9.562;2023-02-01T07:15:30;4.30;99.90
48019;DHT22;33786;48.690;9.562;2023-02-01T07:17:57;4.30;99.90
48019;DHT22;33786;48.690;9.562;2023-02-01T07:20:24;4.40;99.90
48019;DHT22;33786;48.690;9.562;2023-02-01T07:22:57;4.40;99.90
48019;DHT22;33786;48.690;9.562;2023-02-01T07:25:24;4.40;99.90
48019;DHT22;33786;48.690;9.562;2023-02-01T07:27:50;4.40;99.90
48019;DHT22;33786;48.690;9.562;2023-02-01T07:30:17;4.40;99.90
48019;DHT22;33786;48.690;9.562;2023-02-01T07:32:44;4.40;99.90
48019;DHT22;33786;48.690;9.562;2023-02-01T07:35:10;4.30;99.90
48019;DHT22;33786;48.690;9.562;2023-02-01T07:37:37;4.30;99.90
48019;DHT22;33786;48.690;9.562;2023-02-01T07:40:04;4.40;99.90
48019;DHT22;33786;48.690;9.562;2023-02-01T07:42:31;4.40;99.90
48019;DHT22;33786;48.690;9.562;2023-02-01T07:44:58;4.40;99.90
48019;DHT22;33786;48.690;9.562;2023-02-01T07:47:40;4.40;99.90
48019;DHT22;33786;48.690;9.562;2023-02-01T07:50:07;4.50;99.90
48019;DHT22;33786;48.690;9.562;2023-02-01T07:52:34;4.60;99.90
48019;DHT22;33786;48.690;9.562;2023-02-01T07:55:00;4.60;99.90
48019;DHT22;33786;48.690;9.562;2023-02-01T07:57:27;4.60;99.90
48019;DHT22;33786;48.690;9.562;2023-02-01T07:59:54;4.60;99.90
48019;DHT22;33786;48.690;9.562;2023-02-01T08:02:39;4.60;99.90
48019;DHT22;33786;48.690;9.562;2023-02-01T08:05:06;4.60;99.90
48019;DHT22;33786;48.690;9.562;2023-02-01T08:07:33;4.60;99.90
48019;DHT22;33786;48.690;9.562;2023-02-01T08:09:59;4.60;99.90
48019;DHT22;33786;48.690;9.562;2023-02-01T08:12:26;4.40;99.90
48019;DHT22;33786;48.690;9.562;2023-02-01T08:14:53;4.50;99.90
48019;DHT22;33786;48.690;9.562;2023-02-01T08:17:22;4.50;99.90
48019;DHT22;33786;48.690;9.562;2023-02-01T08:19:49;4.50;99.90
48019;DHT22;33786;48.690;9.562;2023-02-01T08:22:16;4.60;99.90
48019;DHT22;33786;48.690;9.562;2023-02-01T08:24:42;4.60;99.90
48019;DHT22;33786;48.690;9.562;2023-02-01T08:27:10;4.60;99.90
48019;DHT22;33786;48.690;9.562;2023-02-01T08:29:36;4.70;99.90
48019;DHT22;33786;48.690;9.562;2023-02-01T08:32:03;4.70;99.90
48019;DHT22;33786;48.690;9.562;2023-02-01T08:34:32;4.70;99.90
48019;DHT22;33786;48.690;9.562;2023-02-01T08:37:01;4.70;99.90
48019;DHT22;33786;48.690;9.562;2023-02-01T08:39:28;4.80;99.90
48019;DHT22;33786;48.690;9.562;2023-02-01T08:41:55;4.80;99.90
48019;DHT22;33786;48.690;9.562;2023-02-01T08:44:40;4.80;99.90
48019;DHT22;33786;48.690;9.562;2023-02-01T08:47:07;5.00;99.90
48019;DHT22;33786;48.690;9.562;2023-02-01T08:49:33;5.00;99.90
48019;DHT22;33786;48.690;9.562;2023-02-01T08:52:00;5.10;99.90
48019;DHT22;33786;48.690;9.562;2023-02-01T08:54:39;5.20;99.90
48019;DHT22;33786;48.690;9.562;2023-02-01T08:57:08;5.10;99.90
48019;DHT22;33786;48.690;9.562;2023-02-01T08:59:36;5.20;99.90
48019;DHT22;33786;48.690;9.562;2023-02-01T09:02:02;5.10;99.90
48019;DHT22;33786;48.690;9.562;2023-02-01T09:04:29;5.30;99.90
48019;DHT22;33786;48.690;9.562;2023-02-01T09:06:56;5.20;99.90
48019;DHT22;33786;48.690;9.562;2023-02-01T09:09:22;5.20;99.90
48019;DHT22;33786;48.690;9.562;2023-02-01T09:11:49;5.30;99.90
48019;DHT22;33786;48.690;9.562;2023-02-01T09:14:16;5.30;99.90
48019;DHT22;33786;48.690;9.562;2023-02-01T09:16:43;5.30;99.90
48019;DHT22;33786;48.690;9.562;2023-02-01T09:19:10;5.50;99.90
48019;DHT22;33786;48.690;9.562;2023-02-01T09:21:51;5.50;99.90
48019;DHT22;33786;48.690;9.562;2023-02-01T09:24:18;5.50;99.90
48019;DHT22;33786;48.690;9.562;2023-02-01T09:26:45;5.50;99.90
48019;DHT22;33786;48.690;9.562;2023-02-01T09:29:12;5.40;99.90
48019;DHT22;33786;48.690;9.562;2023-02-01T09:31:39;5.30;99.90
48019;DHT22;33786;48.690;9.562;2023-02-01T09:34:15;5.20;99.90
48019;DHT22;33786;48.690;9.562;2023-02-01T09:36:42;5.10;99.90
48019;DHT22;33786;48.690;9.562;2023-02-01T09:39:08;5.20;99.90
48019;DHT22;33786;48.690;9.562;2023-02-01T09:46:31;5.10;99.90
48019;DHT22;33786;48.690;9.562;2023-02-01T09:49:01;5.10;99.90
48019;DHT22;33786;48.690;9.562;2023-02-01T09:51:31;5.10;99.90
48019;DHT22;33786;48.690;9.562;2023-02-01T09:54:16;5.00;99.90
48019;DHT22;33786;48.690;9.562;2023-02-01T09:56:51;5.00;99.90
48019;DHT22;33786;48.690;9.562;2023-02-01T10:02:02;5.00;99.90
48019;DHT22;33786;48.690;9.562;2023-02-01T10:04:29;5.10;99.90
48019;DHT22;33786;48.690;9.562;2023-02-01T10:06:58;5.10;99.90
48019;DHT22;33786;48.690;9.562;2023-02-01T10:09:37;5.00;99.90
48019;DHT22;33786;48.690;9.562;2023-02-01T10:17:30;5.40;99.90
48019;DHT22;33786;48.690;9.562;2023-02-01T10:20:01;5.40;99.90
48019;DHT22;33786;48.690;9.562;2023-02-01T10:27:52;5.40;99.90
48019;DHT22;33786;48.690;9.562;2023-02-01T10:30:20;5.40;99.90
48019;DHT22;33786;48.690;9.562;2023-02-01T10:33:02;5.50;99.90
48019;DHT22;33786;48.690;9.562;2023-02-01T10:35:34;5.60;99.90
48019;DHT22;33786;48.690;9.562;2023-02-01T10:38:03;5.50;99.90
48019;DHT22;33786;48.690;9.562;2023-02-01T10:40:31;5.60;99.90
48019;DHT22;33786;48.690;9.562;2023-02-01T10:43:00;5.50;99.90
48019;DHT22;33786;48.690;9.562;2023-02-01T10:45:29;5.50;99.90
48019;DHT22;33786;48.690;9.562;2023-02-01T10:47:57;5.50;99.90
48019;DHT22;33786;48.690;9.562;2023-02-01T10:53:36;5.60;99.90
48019;DHT22;33786;48.690;9.562;2023-02-01T10:58:16;5.60;99.90
48019;DHT22;33786;48.690;9.562;2023-02-01T11:00:45;5.50;99.90
48019;DHT22;33786;48.690;9.562;2023-02-01T11:03:55;5.70;99.90
48019;DHT22;33786;48.690;9.562;2023-02-01T11:06:03;5.80;99.90
48019;DHT22;33786;48.690;9.562;2023-02-01T11:08:41;6.00;99.90
48019;DHT22;33786;48.690;9.562;2023-02-01T11:11:08;6.00;99.90
48019;DHT22;33786;48.690;9.562;2023-02-01T11:13:38;5.90;99.90
48019;DHT22;33786;48.690;9.562;2023-02-01T11:16:05;5.80;99.90
48019;DHT22;33786;48.690;9.562;2023-02-01T11:18:34;5.90;99.90
48019;DHT22;33786;48.690;9.562;2023-02-01T11:21:02;5.90;99.90
48019;DHT22;33786;48.690;9.562;2023-02-01T11:23:29;5.80;99.90
48019;DHT22;33786;48.690;9.562;2023-02-01T11:25:57;5.80;99.90
48019;DHT22;33786;48.690;9.562;2023-02-01T11:28:25;5.80;99.90
48019;DHT22;33786;48.690;9.562;2023-02-01T11:30:53;5.80;99.90
48019;DHT22;33786;48.690;9.562;2023-02-01T11:33:23;5.90;99.90
48019;DHT22;33786;48.690;9.562;2023-02-01T11:35:53;6.00;99.90
48019;DHT22;33786;48.690;9.562;2023-02-01T11:40:53;5.90;99.90
48019;DHT22;33786;48.690;9.562;2023-02-01T11:43:24;5.90;99.90
48019;DHT22;33786;48.690;9.562;2023-02-01T11:45:55;6.00;99.90
48019;DHT22;33786;48.690;9.562;2023-02-01T11:48:23;5.90;99.90
48019;DHT22;33786;48.690;9.562;2023-02-01T11:53:25;5.90;99.90
48019;DHT22;33786;48.690;9.562;2023-02-01T12:01:09;5.90;99.90
48019;DHT22;33786;48.690;9.562;2023-02-01T12:08:58;5.70;99.90
48019;DHT22;33786;48.690;9.562;2023-02-01T12:14:24;5.80;99.90
48019;DHT22;33786;48.690;9.562;2023-02-01T12:24:45;6.00;99.90
48019;DHT22;33786;48.690;9.562;2023-02-01T12:38:07;5.80;99.90
48019;DHT22;33786;48.690;9.562;2023-02-01T12:43:11;5.70;99.90
48019;DHT22;33786;48.690;9.562;2023-02-01T12:45:42;5.80;99.90
48019;DHT22;33786;48.690;9.562;2023-02-01T12:51:07;5.80;99.90
48019;DHT22;33786;48.690;9.562;2023-02-01T12:56:03;5.90;99.90
48019;DHT22;33786;48.690;9.562;2023-02-01T13:01:04;5.70;99.90
48019;DHT22;33786;48.690;9.562;2023-02-01T13:06:07;5.70;99.90
48019;DHT22;33786;48.690;9.562;2023-02-01T13:13:49;5.70;99.90
48019;DHT22;33786;48.690;9.562;2023-02-01T13:19:10;5.70;99.90
48019;DHT22;33786;48.690;9.562;2023-02-01T13:21:42;5.70;99.90
48019;DHT22;33786;48.690;9.562;2023-02-01T13:24:17;5.60;99.90
48019;DHT22;33786;48.690;9.562;2023-02-01T13:26:46;5.50;99.90
48019;DHT22;33786;48.690;9.562;2023-02-01T13:29:13;5.50;99.90
48019;DHT22;33786;48.690;9.562;2023-02-01T13:41:57;5.70;99.90
48019;DHT22;33786;48.690;9.562;2023-02-01T13:46:56;5.60;99.90
48019;DHT22;33786;48.690;9.562;2023-02-01T13:49:25;5.50;99.90
48019;DHT22;33786;48.690;9.562;2023-02-01T13:51:56;5.50;99.90
48019;DHT22;33786;48.690;9.562;2023-02-01T13:56:50;5.50;99.90
48019;DHT22;33786;48.690;9.562;2023-02-01T13:59:36;5.40;99.90
48019;DHT22;33786;48.690;9.562;2023-02-01T14:02:49;5.50;99.90
48019;DHT22;33786;48.690;9.562;2023-02-01T14:04:50;5.50;99.90
48019;DHT22;33786;48.690;9.562;2023-02-01T14:07:18;5.50;99.90
48019;DHT22;33786;48.690;9.562;2023-02-01T14:09:45;5.50;99.90
48019;DHT22;33786;48.690;9.562;2023-02-01T14:17:43;5.50;99.90
48019;DHT22;33786;48.690;9.562;2023-02-01T14:23:04;5.40;99.90
48019;DHT22;33786;48.690;9.562;2023-02-01T14:25:36;5.40;99.90
48019;DHT22;33786;48.690;9.562;2023-02-01T14:28:10;5.30;99.90
48019;DHT22;33786;48.690;9.562;2023-02-01T14:30:37;5.30;99.90
48019;DHT22;33786;48.690;9.562;2023-02-01T14:33:17;5.30;99.90
48019;DHT22;33786;48.690;9.562;2023-02-01T14:35:52;5.20;99.90
48019;DHT22;33786;48.690;9.562;2023-02-01T14:38:21;5.20;99.90
48019;DHT22;33786;48.690;9.562;2023-02-01T14:40:48;5.20;99.90
48019;DHT22;33786;48.690;9.562;2023-02-01T14:43:14;5.30;99.90
48019;DHT22;33786;48.690;9.562;2023-02-01T14:45:59;5.30;99.90
48019;DHT22;33786;48.690;9.562;2023-02-01T14:48:40;5.30;99.90
48019;DHT22;33786;48.690;9.562;2023-02-01T14:51:08;5.20;99.90
48019;DHT22;33786;48.690;9.562;2023-02-01T14:53:35;5.20;99.90
48019;DHT22;33786;48.690;9.562;2023-02-01T15:01:22;5.30;99.90
48019;DHT22;33786;48.690;9.562;2023-02-01T15:04:01;5.30;99.90
48019;DHT22;33786;48.690;9.562;2023-02-01T15:09:38;5.20;99.90
48019;DHT22;33786;48.690;9.562;2023-02-01T15:12:05;5.30;99.90
48019;DHT22;33786;48.690;9.562;2023-02-01T15:14:42;5.20;99.90
48019;DHT22;33786;48.690;9.562;2023-02-01T15:17:17;5.20;99.90
48019;DHT22;33786;48.690;9.562;2023-02-01T15:22:24;5.20;99.90
48019;DHT22;33786;48.690;9.562;2023-02-01T15:24:54;5.30;99.90
48019;DHT22;33786;48.690;9.562;2023-02-01T15:27:22;5.20;99.90
48019;DHT22;33786;48.690;9.562;2023-02-01T15:29:48;5.30;99.90
48019;DHT22;33786;48.690;9.562;2023-02-01T15:32:28;5.20;99.90
48019;DHT22;33786;48.690;9.562;2023-02-01T15:34:56;5.20;99.90
48019;DHT22;33786;48.690;9.562;2023-02-01T15:37:22;5.20;99.90
48019;DHT22;33786;48.690;9.562;2023-02-01T15:42:31;5.20;99.90
48019;DHT22;33786;48.690;9.562;2023-02-01T15:44:57;5.30;99.90
48019;DHT22;33786;48.690;9.562;2023-02-01T15:47:25;5.20;99.90
48019;DHT22;33786;48.690;9.562;2023-02-01T15:49:55;5.30;99.90
48019;DHT22;33786;48.690;9.562;2023-02-01T15:52:27;5.20;99.90
48019;DHT22;33786;48.690;9.562;2023-02-01T15:54:58;5.10;99.90
48019;DHT22;33786;48.690;9.562;2023-02-01T15:57:27;5.20;99.90
48019;DHT22;33786;48.690;9.562;2023-02-01T16:00:03;5.20;99.90
48019;DHT22;33786;48.690;9.562;2023-02-01T16:02:36;5.20;99.90
48019;DHT22;33786;48.690;9.562;2023-02-01T16:05:06;5.10;99.90
48019;DHT22;33786;48.690;9.562;2023-02-01T16:10:41;5.20;99.90
48019;DHT22;33786;48.690;9.562;2023-02-01T16:13:08;5.10;99.90
48019;DHT22;33786;48.690;9.562;2023-02-01T16:15:35;5.20;99.90
48019;DHT22;33786;48.690;9.562;2023-02-01T16:18:01;5.10;99.90
48019;DHT22;33786;48.690;9.562;2023-02-01T16:20:28;5.10;99.90
48019;DHT22;33786;48.690;9.562;2023-02-01T16:22:56;5.10;99.90
48019;DHT22;33786;48.690;9.562;2023-02-01T16:25:23;5.20;99.90
48019;DHT22;33786;48.690;9.562;2023-02-01T16:27:50;5.10;99.90
48019;DHT22;33786;48.690;9.562;2023-02-01T16:30:17;5.10;99.90
48019;DHT22;33786;48.690;9.562;2023-02-01T16:32:51;5.10;99.90
48019;DHT22;33786;48.690;9.562;2023-02-01T16:35:21;5.10;99.90
48019;DHT22;33786;48.690;9.562;2023-02-01T16:37:49;5.10;99.90
48019;DHT22;33786;48.690;9.562;2023-02-01T16:40:16;5.00;99.90
48019;DHT22;33786;48.690;9.562;2023-02-01T16:42:44;5.00;99.90
48019;DHT22;33786;48.690;9.562;2023-02-01T16:45:11;5.00;99.90
48019;DHT22;33786;48.690;9.562;2023-02-01T16:47:46;5.00;99.90
48019;DHT22;33786;48.690;9.562;2023-02-01T16:50:15;5.00;99.90
48019;DHT22;33786;48.690;9.562;2023-02-01T16:52:49;5.00;99.90
48019;DHT22;33786;48.690;9.562;2023-02-01T16:55:16;5.00;99.90
48019;DHT22;33786;48.690;9.562;2023-02-01T16:57:44;5.00;99.90
48019;DHT22;33786;48.690;9.562;2023-02-01T17:00:11;4.90;99.90
48019;DHT22;33786;48.690;9.562;2023-02-01T17:02:51;5.00;99.90
48019;DHT22;33786;48.690;9.562;2023-02-01T17:05:17;5.00;99.90
48019;DHT22;33786;48.690;9.562;2023-02-01T17:07:44;5.00;99.90
48019;DHT22;33786;48.690;9.562;2023-02-01T17:10:17;5.00;99.90
48019;DHT22;33786;48.690;9.562;2023-02-01T17:12:57;5.00;99.90
48019;DHT22;33786;48.690;9.562;2023-02-01T17:15:25;5.00;99.90
48019;DHT22;33786;48.690;9.562;2023-02-01T17:17:52;5.00;99.90
48019;DHT22;33786;48.690;9.562;2023-02-01T17:20:21;4.90;99.90
48019;DHT22;33786;48.690;9.562;2023-02-01T17:22:48;4.90;99.90
48019;DHT22;33786;48.690;9.562;2023-02-01T17:25:16;5.00;99.90
48019;DHT22;33786;48.690;9.562;2023-02-01T17:27:43;5.00;99.90
48019;DHT22;33786;48.690;9.562;2023-02-01T17:30:11;4.90;99.90
48019;DHT22;33786;48.690;9.562;2023-02-01T17:32:38;4.90;99.90
48019;DHT22;33786;48.690;9.562;2023-02-01T17:35:10;5.00;99.90
48019;DHT22;33786;48.690;9.562;2023-02-01T17:37:41;5.00;99.90
48019;DHT22;33786;48.690;9.562;2023-02-01T17:40:08;4.90;99.90
48019;DHT22;33786;48.690;9.562;2023-02-01T17:42:36;4.90;99.90
48019;DHT22;33786;48.690;9.562;2023-02-01T17:45:15;4.90;99.90
48019;DHT22;33786;48.690;9.562;2023-02-01T17:47:43;4.90;99.90
48019;DHT22;33786;48.690;9.562;2023-02-01T17:50:09;4.90;99.90
48019;DHT22;33786;48.690;9.562;2023-02-01T17:52:36;4.90;99.90
48019;DHT22;33786;48.690;9.562;2023-02-01T17:55:09;4.90;99.90
48019;DHT22;33786;48.690;9.562;2023-02-01T17:57:41;4.90;99.90
48019;DHT22;33786;48.690;9.562;2023-02-01T18:00:08;4.90;99.90
48019;DHT22;33786;48.690;9.562;2023-02-01T18:02:35;4.90;99.90
48019;DHT22;33786;48.690;9.562;2023-02-01T18:05:04;4.90;99.90
48019;DHT22;33786;48.690;9.562;2023-02-01T18:07:36;4.90;99.90
48019;DHT22;33786;48.690;9.562;2023-02-01T18:10:02;4.90;99.90
48019;DHT22;33786;48.690;9.562;2023-02-01T18:12:29;4.90;99.90
48019;DHT22;33786;48.690;9.562;2023-02-01T18:14:57;4.90;99.90
48019;DHT22;33786;48.690;9.562;2023-02-01T18:17:24;4.90;99.90
48019;DHT22;33786;48.690;9.562;2023-02-01T18:19:51;4.90;99.90
48019;DHT22;33786;48.690;9.562;2023-02-01T18:22:20;4.90;99.90
48019;DHT22;33786;48.690;9.562;2023-02-01T18:24:48;4.90;99.90